Time;durP1;ratioP1;P1;durP2;ratioP2;P2;SDS_P1;SDS_P2;PMS_P1;PMS_P2;Temp;Humidity;BMP_temperature;BMP_pressure;BME280_temperature;BME280_humidity;BME280_pressure;Samples;Min_cycle;Max_cycle;Signal;HPM_P1;HPM_P2
2023/12/26 00:00:21;;;;;;;0.90;0.60;;;14.70;49.40;;;;;;5033533;28;20178;-46
2023/12/26 00:02:47;;;;;;;0.90;0.40;;;14.70;50.10;;;;;;5033361;28;20189;-49
2023/12/26 00:05:13;;;;;;;0.90;0.40;;;14.70;50.00;;;;;;5032493;28;20206;-46
2023/12/26 00:07:42;;;;;;;0.93;0.50;;;14.60;49.70;;;;;;5033145;28;20206;-53
2023/12/26 00:10:08;;;;;;;1.00;0.67;;;14.60;49.70;;;;;;5015668;28;20289;-49
2023/12/26 00:12:34;;;;;;;0.90;0.40;;;14.60;49.70;;;;;;5033119;28;20455;-48
2023/12/26 00:14:59;;;;;;;1.00;0.57;;;14.70;49.70;;;;;;5033311;28;20404;-47
2023/12/26 00:17:25;;;;;;;1.30;1.15;;;14.70;49.30;;;;;;5033222;28;20193;-49
2023/12/26 00:19:51;;;;;;;0.93;0.53;;;14.70;49.40;;;;;;5033071;28;20202;-53
2023/12/26 00:22:16;;;;;;;0.90;0.30;;;14.70;49.50;;;;;;5033091;28;20544;-46
2023/12/26 00:24:42;;;;;;;1.00;0.60;;;14.80;49.30;;;;;;5033079;28;20204;-49
2023/12/26 00:27:08;;;;;;;1.00;0.50;;;14.90;49.20;;;;;;5032872;28;20699;-49
2023/12/26 00:29:35;;;;;;;1.00;0.63;;;15.00;48.00;;;;;;5032810;28;20544;-47
2023/12/26 00:32:00;;;;;;;0.90;0.40;;;14.90;48.20;;;;;;5032811;28;20190;-48
2023/12/26 00:34:26;;;;;;;0.80;0.30;;;15.00;47.80;;;;;;5032970;28;20747;-49
2023/12/26 00:36:52;;;;;;;1.33;0.80;;;15.00;47.70;;;;;;5032836;28;20170;-47
2023/12/26 00:39:18;;;;;;;0.90;0.30;;;15.10;47.30;;;;;;5032680;28;20231;-46
2023/12/26 00:41:44;;;;;;;0.90;0.40;;;15.00;47.50;;;;;;5032601;28;20227;-51
2023/12/26 00:44:10;;;;;;;0.90;0.47;;;15.00;47.30;;;;;;5032633;28;20273;-46
2023/12/26 00:46:35;;;;;;;0.87;0.27;;;15.00;47.20;;;;;;5032835;28;20174;-46
2023/12/26 00:49:01;;;;;;;1.00;0.70;;;15.10;47.70;;;;;;5032369;28;20202;-50
2023/12/26 00:51:27;;;;;;;1.20;0.65;;;15.10;47.00;;;;;;5032704;28;20547;-46
2023/12/26 00:53:53;;;;;;;0.80;0.30;;;15.10;46.60;;;;;;5032479;28;20667;-48
2023/12/26 00:56:19;;;;;;;1.00;0.53;;;15.00;46.90;;;;;;5032513;28;20267;-50
2023/12/26 00:58:45;;;;;;;1.00;0.50;;;15.00;46.20;;;;;;5032549;28;20650;-47
2023/12/26 01:01:10;;;;;;;1.60;1.10;;;15.10;47.10;;;;;;5032573;28;20937;-51
2023/12/26 01:03:36;;;;;;;0.90;0.50;;;15.10;45.90;;;;;;5032435;28;20201;-47
2023/12/26 01:06:02;;;;;;;0.80;0.20;;;15.10;46.20;;;;;;5032415;28;20180;-48
2023/12/26 01:08:27;;;;;;;0.93;0.40;;;15.20;46.50;;;;;;5032026;28;20644;-52
2023/12/26 01:10:53;;;;;;;0.90;0.47;;;15.10;45.80;;;;;;5032134;28;20227;-51
2023/12/26 01:13:19;;;;;;;0.87;0.30;;;15.10;45.50;;;;;;5032145;28;20244;-48
2023/12/26 01:15:45;;;;;;;0.90;0.38;;;15.10;46.50;;;;;;5032099;28;20416;-49
2023/12/26 01:18:11;;;;;;;1.20;0.73;;;15.20;46.60;;;;;;5032057;28;20170;-50
2023/12/26 01:20:37;;;;;;;0.88;0.32;;;15.20;45.70;;;;;;5032144;28;20773;-47
2023/12/26 01:23:03;;;;;;;0.90;0.30;;;15.10;45.30;;;;;;5032120;28;20198;-46
2023/12/26 01:25:29;;;;;;;1.50;0.60;;;15.00;46.00;;;;;;5032036;28;20245;-48
2023/12/26 01:27:55;;;;;;;0.90;0.50;;;15.20;46.30;;;;;;5031777;28;20667;-46
2023/12/26 01:30:21;;;;;;;0.90;0.40;;;15.30;46.40;;;;;;5031951;28;20202;-48
2023/12/26 01:32:47;;;;;;;0.90;0.30;;;15.30;45.80;;;;;;5031958;28;20209;-48
2023/12/26 01:35:12;;;;;;;0.90;0.50;;;15.30;46.10;;;;;;5031934;28;21011;-47
2023/12/26 01:37:38;;;;;;;1.00;0.60;;;15.40;46.00;;;;;;5031763;28;20174;-47
2023/12/26 01:40:04;;;;;;;0.90;0.40;;;15.40;46.10;;;;;;5031883;28;20180;-51
2023/12/26 01:42:31;;;;;;;0.93;0.55;;;15.30;44.60;;;;;;5031771;28;20200;-48
2023/12/26 01:44:57;;;;;;;1.10;0.50;;;15.10;45.60;;;;;;5031986;28;20185;-45
2023/12/26 01:47:22;;;;;;;0.90;0.30;;;15.10;45.70;;;;;;5031929;28;20170;-51
2023/12/26 01:49:48;;;;;;;1.00;0.63;;;15.00;45.90;;;;;;5031708;28;20233;-47
2023/12/26 01:52:19;;;;;;;0.90;0.37;;;15.10;46.00;;;;;;5031776;28;20599;-49
2023/12/26 01:54:45;;;;;;;0.90;0.40;;;15.20;45.50;;;;;;5031825;28;20440;-52
2023/12/26 01:57:11;;;;;;;0.90;0.50;;;15.20;45.70;;;;;;5031717;28;20466;-46
2023/12/26 01:59:38;;;;;;;0.90;0.40;;;15.20;45.30;;;;;;5032377;28;20182;-46
2023/12/26 02:02:05;;;;;;;0.90;0.40;;;15.10;46.40;;;;;;5032861;28;20288;-51
2023/12/26 02:04:31;;;;;;;0.95;0.50;;;15.10;46.00;;;;;;5015097;28;20186;-51
2023/12/26 02:06:57;;;;;;;0.90;0.30;;;15.00;45.60;;;;;;5032652;28;20184;-48
2023/12/26 02:09:26;;;;;;;0.90;0.50;;;14.70;46.70;;;;;;5031868;28;20213;-47
2023/12/26 02:11:55;;;;;;;0.90;0.30;;;15.10;47.20;;;;;;5031573;28;20552;-52
2023/12/26 02:14:21;;;;;;;1.02;0.63;;;14.80;46.50;;;;;;5031609;28;20647;-46
2023/12/26 02:16:48;;;;;;;0.90;0.40;;;14.90;46.30;;;;;;5031565;28;20177;-50
2023/12/26 02:19:15;;;;;;;1.73;0.60;;;15.10;46.20;;;;;;5031398;28;20181;-50
2023/12/26 02:21:41;;;;;;;0.90;0.40;;;15.10;46.00;;;;;;5031399;28;20532;-47
2023/12/26 02:24:07;;;;;;;0.90;0.40;;;15.10;45.60;;;;;;5031668;28;20175;-51
2023/12/26 02:26:40;;;;;;;0.90;0.40;;;15.10;45.70;;;;;;5031520;28;20181;-50
2023/12/26 02:29:06;;;;;;;0.90;0.40;;;15.00;46.00;;;;;;5033680;28;20200;-48
2023/12/26 02:31:34;;;;;;;1.20;0.60;;;15.00;46.30;;;;;;5035238;28;20582;-47
2023/12/26 02:34:00;;;;;;;0.80;0.38;;;15.00;46.20;;;;;;5035006;28;20623;-50
2023/12/26 02:36:27;;;;;;;0.80;0.20;;;14.90;46.50;;;;;;5017377;28;20205;-47
2023/12/26 02:38:53;;;;;;;0.80;0.30;;;15.00;45.90;;;;;;5034934;28;20551;-48
2023/12/26 02:41:19;;;;;;;1.48;0.57;;;15.00;46.50;;;;;;5035056;28;20173;-51
2023/12/26 02:43:44;;;;;;;0.90;0.40;;;15.00;45.90;;;;;;5035060;28;20825;-50
2023/12/26 02:46:10;;;;;;;0.97;0.50;;;15.00;46.40;;;;;;5035056;28;20185;-48
2023/12/26 02:48:36;;;;;;;0.90;0.30;;;15.00;46.40;;;;;;5034750;28;20590;-50
2023/12/26 02:51:03;;;;;;;0.90;0.40;;;15.00;46.10;;;;;;5034782;28;20178;-47
2023/12/26 02:53:29;;;;;;;1.30;0.45;;;15.10;46.70;;;;;;5034759;28;20590;-48
2023/12/26 02:55:54;;;;;;;0.90;0.43;;;15.00;45.70;;;;;;5034764;28;20173;-51
2023/12/26 02:58:21;;;;;;;0.90;0.57;;;15.00;46.30;;;;;;5034633;28;20241;-47
2023/12/26 03:00:47;;;;;;;0.90;0.30;;;15.00;46.20;;;;;;5034707;28;20241;-49
2023/12/26 03:03:13;;;;;;;0.90;0.40;;;15.00;46.10;;;;;;5034536;28;20190;-49
2023/12/26 03:05:39;;;;;;;0.90;0.40;;;14.90;46.90;;;;;;5034656;28;20166;-49
2023/12/26 03:08:05;;;;;;;0.90;0.40;;;15.00;47.10;;;;;;5034380;28;20693;-46
2023/12/26 03:10:31;;;;;;;1.00;0.60;;;14.90;46.90;;;;;;5034439;28;20789;-49
2023/12/26 03:12:57;;;;;;;0.90;0.47;;;14.80;47.10;;;;;;5034405;28;20281;-46
2023/12/26 03:15:22;;;;;;;1.00;0.57;;;14.90;47.60;;;;;;5034474;28;20175;-47
2023/12/26 03:17:48;;;;;;;0.95;0.65;;;15.00;47.60;;;;;;5034124;28;20196;-49
2023/12/26 03:20:14;;;;;;;0.90;0.50;;;14.90;48.20;;;;;;5034315;28;20186;-48
2023/12/26 03:22:41;;;;;;;1.00;0.60;;;14.90;48.20;;;;;;5034143;28;20735;-51
2023/12/26 03:25:07;;;;;;;0.80;0.20;;;14.90;48.50;;;;;;5034272;28;20176;-51
2023/12/26 03:27:33;;;;;;;0.90;0.40;;;14.80;48.50;;;;;;5033950;28;20539;-47
2023/12/26 03:29:59;;;;;;;1.00;0.60;;;14.70;48.60;;;;;;5034096;28;20193;-49
2023/12/26 03:32:25;;;;;;;1.17;0.60;;;14.60;49.00;;;;;;5033862;28;20477;-51
2023/12/26 03:34:50;;;;;;;0.98;0.50;;;14.70;48.90;;;;;;5034122;28;20694;-47
2023/12/26 03:37:16;;;;;;;0.90;0.57;;;14.80;48.40;;;;;;5034171;28;20228;-51
2023/12/26 03:39:42;;;;;;;0.90;0.50;;;14.90;48.00;;;;;;5033666;28;20245;-48
2023/12/26 03:42:08;;;;;;;1.10;0.40;;;14.90;47.60;;;;;;5033842;28;20482;-47
2023/12/26 03:44:34;;;;;;;0.90;0.40;;;14.80;47.30;;;;;;5033838;28;20555;-50
2023/12/26 03:47:00;;;;;;;1.00;0.70;;;14.80;47.20;;;;;;5033979;28;20731;-47
2023/12/26 03:49:26;;;;;;;1.30;1.10;;;14.80;47.30;;;;;;5033628;28;20201;-45
2023/12/26 03:51:52;;;;;;;0.90;0.50;;;14.70;47.40;;;;;;5033737;28;20551;-47
2023/12/26 03:54:19;;;;;;;0.93;0.50;;;14.80;47.30;;;;;;5033636;28;20171;-49
2023/12/26 03:56:45;;;;;;;0.90;0.40;;;14.70;47.20;;;;;;5033851;28;20174;-45
2023/12/26 03:59:12;;;;;;;1.10;0.70;;;14.60;47.60;;;;;;5033350;28;20193;-45
2023/12/26 04:01:37;;;;;;;0.90;0.45;;;14.60;47.40;;;;;;5033515;28;20544;-49
2023/12/26 04:04:03;;;;;;;0.90;0.40;;;14.60;47.30;;;;;;5033553;28;20190;-49
2023/12/26 04:06:29;;;;;;;0.93;0.50;;;14.60;47.40;;;;;;5033529;28;20185;-45
2023/12/26 04:08:55;;;;;;;1.00;0.60;;;14.60;47.60;;;;;;5033227;28;20462;-46
2023/12/26 04:11:21;;;;;;;1.00;0.60;;;14.70;47.00;;;;;;5033519;28;20170;-48
2023/12/26 04:13:46;;;;;;;1.00;0.80;;;14.80;46.50;;;;;;5033233;28;20197;-46
2023/12/26 04:16:12;;;;;;;0.90;0.50;;;14.90;46.20;;;;;;5033248;28;20412;-47
2023/12/26 04:18:38;;;;;;;0.90;0.30;;;14.90;46.10;;;;;;5033072;28;20212;-50
2023/12/26 04:21:04;;;;;;;1.10;0.90;;;14.90;46.20;;;;;;5033175;28;20794;-44
2023/12/26 04:23:30;;;;;;;0.90;0.40;;;15.00;46.00;;;;;;5032932;28;20197;-50
2023/12/26 04:25:56;;;;;;;0.90;0.50;;;15.00;45.90;;;;;;5033075;28;20170;-44
2023/12/26 04:28:22;;;;;;;1.00;0.52;;;14.80;45.70;;;;;;5032921;28;20170;-45
2023/12/26 04:30:48;;;;;;;1.00;0.50;;;14.80;46.30;;;;;;5032856;28;20197;-48
2023/12/26 04:33:14;;;;;;;0.85;0.30;;;14.90;46.30;;;;;;5032740;28;20583;-45
2023/12/26 04:35:40;;;;;;;0.90;0.40;;;14.90;45.90;;;;;;5032932;28;20200;-44
2023/12/26 04:38:06;;;;;;;1.10;0.60;;;14.90;46.00;;;;;;5032642;28;20408;-50
2023/12/26 04:40:32;;;;;;;1.40;0.77;;;14.90;45.70;;;;;;5032877;28;20694;-48
2023/12/26 04:43:07;;;;;;;0.90;0.40;;;14.90;45.80;;;;;;5032736;28;20193;-46
2023/12/26 04:45:33;;;;;;;0.90;0.30;;;14.80;45.60;;;;;;5032712;28;20185;-45
2023/12/26 04:47:59;;;;;;;1.00;0.60;;;14.80;46.40;;;;;;5032461;28;20412;-51
2023/12/26 04:50:25;;;;;;;0.90;0.33;;;14.80;45.70;;;;;;5032358;28;20212;-50
2023/12/26 04:52:51;;;;;;;1.00;0.60;;;14.70;45.90;;;;;;5032262;28;20516;-45
2023/12/26 04:55:16;;;;;;;0.90;0.45;;;14.60;46.20;;;;;;5032515;28;20178;-49
2023/12/26 04:57:42;;;;;;;1.40;0.97;;;14.60;46.60;;;;;;5032375;28;20174;-51
2023/12/26 05:00:10;;;;;;;0.90;0.57;;;14.70;46.10;;;;;;5032489;28;20173;-44
2023/12/26 05:02:36;;;;;;;1.10;0.50;;;14.70;45.50;;;;;;5032554;28;20198;-43
2023/12/26 05:05:03;;;;;;;0.90;0.40;;;14.50;46.20;;;;;;5032600;28;20597;-49
2023/12/26 05:07:28;;;;;;;0.90;0.43;;;14.60;45.70;;;;;;5014725;28;20258;-43
2023/12/26 05:09:54;;;;;;;0.80;0.30;;;14.50;46.20;;;;;;5014586;28;20296;-50
2023/12/26 05:12:20;;;;;;;0.93;0.60;;;14.50;46.10;;;;;;5032300;28;20189;-44
2023/12/26 05:14:45;;;;;;;0.90;0.40;;;14.50;46.20;;;;;;5032347;28;20194;-50
2023/12/26 05:17:13;;;;;;;0.90;0.30;;;14.50;45.90;;;;;;5032140;28;20253;-46
2023/12/26 05:19:39;;;;;;;0.90;0.40;;;14.60;45.50;;;;;;5032203;28;20182;-44
2023/12/26 05:22:05;;;;;;;1.00;0.60;;;14.70;45.20;;;;;;5032144;28;20198;-47
2023/12/26 05:24:34;;;;;;;0.90;0.57;;;14.80;45.20;;;;;;5032148;28;20937;-45
2023/12/26 05:27:00;;;;;;;0.85;0.30;;;14.70;44.60;;;;;;5032094;28;20444;-46
2023/12/26 05:29:25;;;;;;;0.90;0.40;;;14.60;45.10;;;;;;5031788;28;20237;-49
2023/12/26 05:31:52;;;;;;;0.90;0.50;;;14.60;45.20;;;;;;5031830;28;20169;-45
2023/12/26 05:34:18;;;;;;;1.00;0.57;;;14.50;45.00;;;;;;5032024;28;20174;-47
2023/12/26 05:36:44;;;;;;;0.90;0.40;;;14.60;44.60;;;;;;5032110;28;20312;-47
2023/12/26 05:39:10;;;;;;;1.10;0.60;;;14.50;44.90;;;;;;5031827;28;20173;-46
2023/12/26 05:41:36;;;;;;;0.90;0.40;;;14.50;45.10;;;;;;5031838;28;20220;-44
2023/12/26 05:44:02;;;;;;;0.93;0.47;;;14.40;45.00;;;;;;5032108;28;20736;-50
2023/12/26 05:46:29;;;;;;;0.90;0.32;;;14.50;44.90;;;;;;5032091;28;20400;-47
2023/12/26 05:48:55;;;;;;;1.00;0.50;;;14.60;44.40;;;;;;5031671;28;20579;-47
2023/12/26 05:51:20;;;;;;;1.20;0.90;;;14.70;44.10;;;;;;5031854;28;20172;-47
2023/12/26 05:53:46;;;;;;;0.90;0.40;;;14.70;44.50;;;;;;5031759;28;20424;-46
2023/12/26 05:56:13;;;;;;;1.00;0.77;;;14.70;44.10;;;;;;5031838;28;20166;-46
2023/12/26 05:58:40;;;;;;;0.93;0.50;;;14.60;44.00;;;;;;5031610;28;20177;-50
2023/12/26 06:01:10;;;;;;;0.90;0.30;;;14.60;44.30;;;;;;5031742;28;20403;-49
2023/12/26 06:03:37;;;;;;;1.00;0.65;;;14.50;44.30;;;;;;5033341;28;20247;-46
2023/12/26 06:06:12;;;;;;;0.90;0.40;;;14.60;44.40;;;;;;5035823;28;20220;-45
2023/12/26 06:08:41;;;;;;;0.90;0.40;;;14.50;44.00;;;;;;5035495;28;20185;-50
2023/12/26 06:11:08;;;;;;;0.90;0.40;;;14.40;43.80;;;;;;5035596;28;20532;-51
2023/12/26 06:13:33;;;;;;;1.00;0.70;;;14.50;44.10;;;;;;5035700;28;20189;-44
2023/12/26 06:15:59;;;;;;;0.90;0.40;;;14.40;43.70;;;;;;5035683;28;20196;-47
2023/12/26 06:18:25;;;;;;;0.90;0.30;;;14.50;44.20;;;;;;5035404;28;20174;-46
2023/12/26 06:20:50;;;;;;;1.00;0.50;;;14.50;44.30;;;;;;5035347;28;20666;-43
2023/12/26 06:23:16;;;;;;;0.90;0.40;;;14.50;43.80;;;;;;5035248;28;20201;-46
2023/12/26 06:25:42;;;;;;;0.83;0.33;;;14.50;44.00;;;;;;5035360;28;20185;-49
2023/12/26 06:28:08;;;;;;;0.90;0.47;;;14.50;44.00;;;;;;5035193;28;20162;-44
2023/12/26 06:30:34;;;;;;;0.90;0.40;;;14.60;43.90;;;;;;5035223;28;20256;-48
2023/12/26 06:33:00;;;;;;;0.90;0.47;;;14.70;43.40;;;;;;5035108;28;20794;-45
2023/12/26 06:35:26;;;;;;;1.00;0.60;;;14.80;42.60;;;;;;5035249;28;20170;-46
2023/12/26 06:37:51;;;;;;;1.00;0.60;;;14.80;42.60;;;;;;5035027;28;20170;-44
2023/12/26 06:40:17;;;;;;;1.00;0.60;;;14.80;42.60;;;;;;5034985;28;20491;-43
2023/12/26 06:42:43;;;;;;;0.80;0.20;;;14.80;42.20;;;;;;5035027;28;20279;-51
2023/12/26 06:45:09;;;;;;;1.00;0.60;;;14.80;42.30;;;;;;5035143;28;20182;-50
2023/12/26 06:47:35;;;;;;;1.00;0.50;;;14.80;42.40;;;;;;5034782;28;20553;-46
2023/12/26 06:50:00;;;;;;;0.90;0.50;;;14.70;42.00;;;;;;5034908;28;20210;-47
2023/12/26 06:52:26;;;;;;;0.90;0.50;;;14.60;42.70;;;;;;5034815;28;20790;-48
2023/12/26 06:54:52;;;;;;;0.90;0.40;;;14.60;42.30;;;;;;5034830;28;20170;-46
2023/12/26 06:57:18;;;;;;;0.90;0.37;;;14.70;41.90;;;;;;5034786;28;20173;-44
2023/12/26 06:59:45;;;;;;;0.93;0.50;;;14.60;42.20;;;;;;5034531;28;20681;-46
2023/12/26 07:02:11;;;;;;;0.90;0.40;;;14.50;42.80;;;;;;5034569;28;20238;-48
2023/12/26 07:04:36;;;;;;;0.97;0.50;;;14.50;42.50;;;;;;5034695;28;20197;-44
2023/12/26 07:07:02;;;;;;;0.88;0.30;;;14.50;42.40;;;;;;5034542;28;20431;-50
2023/12/26 07:09:28;;;;;;;0.90;0.40;;;14.60;42.30;;;;;;5035282;28;20265;-47
2023/12/26 07:11:54;;;;;;;0.90;0.50;;;14.60;42.10;;;;;;5035460;28;20640;-46
2023/12/26 07:14:19;;;;;;;0.90;0.43;;;14.60;42.20;;;;;;5035018;28;20224;-48
2023/12/26 07:16:46;;;;;;;1.00;0.60;;;14.50;42.80;;;;;;5035846;28;20185;-51
2023/12/26 07:19:12;;;;;;;0.90;0.55;;;14.60;42.10;;;;;;5034806;28;20775;-46
2023/12/26 07:21:37;;;;;;;0.90;0.50;;;14.60;42.30;;;;;;5034162;28;20206;-46
2023/12/26 07:24:03;;;;;;;1.00;0.67;;;14.60;42.00;;;;;;5034317;28;20198;-45
2023/12/26 07:26:29;;;;;;;1.00;0.50;;;14.40;42.50;;;;;;5034279;28;20166;-45
2023/12/26 07:28:55;;;;;;;1.00;0.50;;;14.30;43.20;;;;;;5033912;28;20532;-50
2023/12/26 07:31:21;;;;;;;0.93;0.57;;;14.40;42.90;;;;;;5034199;28;20235;-43
2023/12/26 07:33:47;;;;;;;1.00;0.50;;;14.40;42.50;;;;;;5033857;28;20212;-52
2023/12/26 07:36:14;;;;;;;0.80;0.30;;;14.30;42.80;;;;;;5034119;28;20228;-47
2023/12/26 07:38:40;;;;;;;1.00;0.60;;;14.40;42.70;;;;;;5034519;28;20239;-46
2023/12/26 07:41:06;;;;;;;1.00;0.57;;;14.40;42.80;;;;;;5034135;28;20178;-48
2023/12/26 07:43:32;;;;;;;1.40;0.90;;;14.40;42.80;;;;;;5034031;28;20537;-53
2023/12/26 07:45:58;;;;;;;0.90;0.40;;;14.40;43.90;;;;;;5033881;28;20397;-46
2023/12/26 07:48:23;;;;;;;0.90;0.40;;;14.30;43.20;;;;;;5033822;28;20658;-46
2023/12/26 07:50:49;;;;;;;1.20;0.50;;;14.20;43.40;;;;;;5033775;28;20217;-47
2023/12/26 07:53:15;;;;;;;0.90;0.52;;;14.10;44.00;;;;;;5033695;28;20260;-44
2023/12/26 07:55:41;;;;;;;0.90;0.40;;;14.30;43.20;;;;;;5033873;28;20174;-50
2023/12/26 07:58:08;;;;;;;1.00;0.40;;;14.30;43.20;;;;;;5033583;28;20805;-49
2023/12/26 08:00:34;;;;;;;1.00;0.60;;;14.30;43.60;;;;;;5033619;28;20424;-47
2023/12/26 08:03:00;;;;;;;1.48;0.57;;;14.30;43.20;;;;;;5033386;28;20269;-53
2023/12/26 08:05:26;;;;;;;2.47;1.58;;;14.20;43.60;;;;;;5033435;28;20178;-51
2023/12/26 08:07:52;;;;;;;0.80;0.30;;;14.30;43.20;;;;;;5033348;28;20762;-43
2023/12/26 08:10:17;;;;;;;1.10;0.67;;;14.20;43.50;;;;;;5033338;28;20233;-49
2023/12/26 08:12:44;;;;;;;1.00;0.63;;;14.20;43.60;;;;;;5033272;28;20185;-49
2023/12/26 08:15:10;;;;;;;1.10;0.47;;;14.30;43.70;;;;;;5033372;28;20262;-48
2023/12/26 08:17:36;;;;;;;0.90;0.40;;;14.40;43.10;;;;;;5033057;28;20334;-48
2023/12/26 08:20:03;;;;;;;1.20;0.50;;;14.40;42.70;;;;;;5033175;28;20408;-46
2023/12/26 08:22:29;;;;;;;0.82;0.30;;;14.40;43.00;;;;;;5033144;28;20213;-45
2023/12/26 08:24:55;;;;;;;0.80;0.20;;;14.40;42.80;;;;;;5033096;28;20181;-50
2023/12/26 08:27:22;;;;;;;0.90;0.37;;;14.40;43.00;;;;;;5032449;28;20185;-46
2023/12/26 08:29:49;;;;;;;1.40;0.50;;;14.40;43.20;;;;;;5032781;28;20992;-52
2023/12/26 08:32:15;;;;;;;0.90;0.30;;;14.50;43.00;;;;;;5032714;28;20609;-45
2023/12/26 08:34:44;;;;;;;1.87;0.87;;;14.30;42.90;;;;;;5032984;28;20204;-52
2023/12/26 08:37:11;;;;;;;0.90;0.30;;;14.30;43.40;;;;;;5033123;28;20408;-52
2023/12/26 08:39:36;;;;;;;1.10;0.50;;;14.40;42.80;;;;;;5032662;28;20186;-44
2023/12/26 08:42:02;;;;;;;0.80;0.20;;;14.50;43.00;;;;;;5032716;28;20205;-47
2023/12/26 08:44:28;;;;;;;0.90;0.47;;;14.40;42.80;;;;;;5032876;28;20229;-50
2023/12/26 08:46:54;;;;;;;6.87;0.77;;;14.40;42.70;;;;;;5032726;28;20794;-43
2023/12/26 08:49:20;;;;;;;0.90;0.57;;;14.40;42.80;;;;;;5032454;28;20210;-51
2023/12/26 08:51:46;;;;;;;1.00;0.63;;;14.40;43.20;;;;;;5032566;28;20181;-45
2023/12/26 08:54:12;;;;;;;0.80;0.33;;;14.50;42.80;;;;;;5032754;28;20170;-45
2023/12/26 08:56:39;;;;;;;0.80;0.30;;;14.50;42.70;;;;;;5032651;28;20439;-49
2023/12/26 08:59:05;;;;;;;1.00;0.55;;;14.50;42.60;;;;;;5032303;28;20204;-45
2023/12/26 09:01:31;;;;;;;0.90;0.40;;;14.50;43.30;;;;;;5032393;28;20228;-48
2023/12/26 09:03:57;;;;;;;0.83;0.30;;;14.50;42.90;;;;;;5032367;28;20194;-47
2023/12/26 09:06:22;;;;;;;1.00;0.50;;;14.50;43.20;;;;;;5032597;28;20178;-46
2023/12/26 09:08:48;;;;;;;0.90;0.40;;;14.50;42.80;;;;;;5032194;28;20205;-46
2023/12/26 09:11:14;;;;;;;0.80;0.30;;;14.60;43.00;;;;;;5032471;28;20166;-48
2023/12/26 09:13:39;;;;;;;0.80;0.20;;;14.60;42.60;;;;;;5032269;28;20189;-47
2023/12/26 09:16:05;;;;;;;0.90;0.40;;;14.60;42.80;;;;;;5032231;28;20533;-45
2023/12/26 09:18:31;;;;;;;0.90;0.40;;;14.70;43.00;;;;;;5032036;28;20166;-46
2023/12/26 09:20:57;;;;;;;0.87;0.27;;;14.60;43.00;;;;;;5032135;28;20174;-45
2023/12/26 09:23:23;;;;;;;1.35;0.60;;;14.70;43.10;;;;;;5032255;28;20689;-44
2023/12/26 09:25:48;;;;;;;1.00;0.70;;;14.80;42.50;;;;;;5032217;28;20169;-48
2023/12/26 09:28:15;;;;;;;0.90;0.43;;;14.70;42.40;;;;;;5031996;28;20169;-45
2023/12/26 09:30:41;;;;;;;0.90;0.40;;;14.70;42.60;;;;;;5031926;28;20587;-46
2023/12/26 09:33:06;;;;;;;0.90;0.30;;;14.70;42.70;;;;;;5031812;28;20205;-46
2023/12/26 09:35:32;;;;;;;0.80;0.20;;;14.60;43.00;;;;;;5031985;28;20178;-48
2023/12/26 09:37:58;;;;;;;0.90;0.30;;;14.60;42.80;;;;;;5031568;28;20265;-43
2023/12/26 09:40:24;;;;;;;0.90;0.30;;;14.60;42.80;;;;;;5032023;28;20178;-52
2023/12/26 09:42:50;;;;;;;0.90;0.30;;;14.60;42.60;;;;;;5031915;28;20240;-47
2023/12/26 09:45:16;;;;;;;1.38;0.50;;;14.80;42.50;;;;;;5031820;28;20198;-46
2023/12/26 09:47:42;;;;;;;1.40;0.70;;;14.90;42.20;;;;;;5031654;28;20667;-51
2023/12/26 09:50:09;;;;;;;1.27;0.98;;;14.90;42.10;;;;;;5031953;28;20456;-46
2023/12/26 09:52:36;;;;;;;0.90;0.40;;;14.90;41.70;;;;;;5037470;22;20724;-50
2023/12/26 09:55:02;;;;;;;0.93;0.60;;;14.70;42.20;;;;;;5010744;28;20539;-47
2023/12/26 09:57:29;;;;;;;0.90;0.30;;;14.70;42.50;;;;;;5019675;28;20189;-46
2023/12/26 09:59:55;;;;;;;0.90;0.30;;;14.70;42.30;;;;;;4992771;28;20266;-52
2023/12/26 10:02:21;;;;;;;1.00;0.60;;;14.90;42.40;;;;;;4992315;28;20534;-48
2023/12/26 10:04:47;;;;;;;0.88;0.25;;;15.00;41.90;;;;;;5002439;28;20193;-46
2023/12/26 10:07:14;;;;;;;2.00;0.40;;;14.90;41.90;;;;;;5012042;28;20894;-48
2023/12/26 10:09:41;;;;;;;0.90;0.30;;;15.00;42.00;;;;;;5011565;28;20461;-46
2023/12/26 10:12:07;;;;;;;1.00;0.60;;;14.80;42.40;;;;;;5011937;28;20174;-44
2023/12/26 10:14:32;;;;;;;1.10;0.40;;;14.80;42.80;;;;;;5019786;28;20738;-51
2023/12/26 10:16:59;;;;;;;0.90;0.33;;;14.70;43.40;;;;;;5023662;28;20270;-46
2023/12/26 10:19:25;;;;;;;0.93;0.50;;;14.90;43.50;;;;;;5031372;28;20185;-47
2023/12/26 10:21:51;;;;;;;0.90;0.45;;;15.00;43.20;;;;;;5031862;28;20185;-51
2023/12/26 10:24:18;;;;;;;0.90;0.35;;;15.30;42.10;;;;;;5031704;28;20266;-46
2023/12/26 10:26:44;;;;;;;1.13;0.30;;;15.40;42.60;;;;;;5031747;28;20185;-47
2023/12/26 10:29:14;;;;;;;0.80;0.30;;;15.50;41.90;;;;;;5031299;28;20190;-51
2023/12/26 10:31:41;;;;;;;2.95;0.52;;;15.50;42.40;;;;;;5031587;28;20177;-47
2023/12/26 10:34:14;;;;;;;1.20;0.60;;;15.60;41.30;;;;;;5031357;28;20188;-45
2023/12/26 10:36:48;;;;;;;1.10;0.65;;;15.40;42.10;;;;;;5031684;28;20178;-48
2023/12/26 10:39:14;;;;;;;0.90;0.40;;;15.30;42.20;;;;;;5031250;28;20192;-49
2023/12/26 10:41:45;;;;;;;0.90;0.30;;;15.30;42.60;;;;;;5031434;28;20567;-46
2023/12/26 10:44:13;;;;;;;1.00;0.65;;;15.20;42.10;;;;;;5031349;28;20205;-50
2023/12/26 10:46:40;;;;;;;0.90;0.40;;;15.10;42.80;;;;;;5031324;28;20416;-45
2023/12/26 10:49:29;;;;;;;0.90;0.40;;;15.00;43.00;;;;;;5031962;28;20289;-53
2023/12/26 10:51:58;;;;;;;1.10;0.80;;;15.00;43.20;;;;;;5034602;28;20186;-51
2023/12/26 10:54:25;;;;;;;5.55;0.45;;;14.80;43.60;;;;;;5034694;28;20724;-47
2023/12/26 10:56:52;;;;;;;1.42;0.65;;;14.80;44.30;;;;;;5034866;28;20169;-45
2023/12/26 13:51:25;;;;;;;1.05;0.65;;;15.40;40.20;;;;;;5031983;28;20340;-51
2023/12/26 13:53:51;;;;;;;1.00;0.50;;;15.30;40.20;;;;;;5031723;28;20284;-52
2023/12/26 13:56:19;;;;;;;1.03;0.67;;;15.10;41.10;;;;;;5031794;28;20258;-45
2023/12/26 13:58:45;;;;;;;0.90;0.30;;;15.20;40.80;;;;;;5031853;28;20416;-46
2023/12/26 14:01:10;;;;;;;0.98;0.68;;;15.20;40.40;;;;;;5031789;28;20415;-51
2023/12/26 14:03:36;;;;;;;0.90;0.30;;;15.30;40.80;;;;;;5031654;28;20272;-47
2023/12/26 14:06:01;;;;;;;1.13;0.60;;;15.50;40.20;;;;;;5031787;28;20189;-46
2023/12/26 14:08:27;;;;;;;2.90;0.93;;;15.50;40.30;;;;;;5031524;28;20177;-54
2023/12/26 14:10:53;;;;;;;2.47;0.50;;;15.50;40.30;;;;;;5031647;28;20226;-47
2023/12/26 14:13:18;;;;;;;1.00;0.50;;;15.50;40.00;;;;;;5031571;28;20186;-47
2023/12/26 14:15:44;;;;;;;1.00;0.30;;;15.30;40.90;;;;;;5031667;28;20177;-49
2023/12/26 14:18:10;;;;;;;1.10;0.53;;;15.20;40.90;;;;;;5031562;28;20186;-45
2023/12/26 14:20:36;;;;;;;1.50;1.23;;;15.10;41.10;;;;;;5031661;28;20174;-51
2023/12/26 14:23:01;;;;;;;0.90;0.32;;;15.00;41.60;;;;;;5031462;28;20198;-50
2023/12/26 14:25:28;;;;;;;1.10;0.80;;;15.00;41.70;;;;;;5034740;28;20174;-46
2023/12/26 14:27:53;;;;;;;1.00;0.60;;;15.00;41.90;;;;;;5035278;28;20229;-47
2023/12/26 14:30:19;;;;;;;1.10;0.77;;;15.00;42.60;;;;;;5035255;28;20667;-53
2023/12/26 14:32:45;;;;;;;0.93;0.40;;;14.90;44.40;;;;;;5035384;28;20194;-46
2023/12/26 14:35:11;;;;;;;0.98;0.50;;;14.50;45.20;;;;;;5035318;28;20602;-45
2023/12/26 14:37:36;;;;;;;1.00;0.50;;;14.20;46.50;;;;;;5033756;28;20176;-52
2023/12/26 14:40:02;;;;;;;1.00;0.67;;;14.10;47.20;;;;;;5035170;28;20174;-50
2023/12/26 14:42:28;;;;;;;1.00;0.50;;;14.10;47.30;;;;;;5033732;28;20688;-46
2023/12/26 14:44:53;;;;;;;1.07;0.60;;;14.10;47.20;;;;;;5035213;28;20412;-47
2023/12/26 14:47:19;;;;;;;1.10;0.80;;;13.90;47.20;;;;;;5035121;28;20532;-51
2023/12/26 14:49:45;;;;;;;1.20;0.60;;;13.80;47.50;;;;;;5034844;28;20205;-46
2023/12/26 14:52:11;;;;;;;1.20;0.75;;;13.60;48.30;;;;;;5034942;28;20177;-46
2023/12/26 14:54:37;;;;;;;1.10;0.70;;;13.50;48.50;;;;;;5033600;28;20190;-49
2023/12/26 14:57:02;;;;;;;1.23;1.07;;;13.50;48.10;;;;;;5035084;28;20170;-46
2023/12/26 14:59:28;;;;;;;1.00;0.60;;;13.60;47.60;;;;;;5034673;28;20172;-46
2023/12/26 15:01:58;;;;;;;1.30;1.00;;;13.70;47.00;;;;;;5034774;28;20183;-48
2023/12/26 15:04:27;;;;;;;1.00;0.57;;;13.60;47.00;;;;;;5034280;28;20218;-51
2023/12/26 15:07:04;;;;;;;1.00;0.60;;;13.70;46.50;;;;;;5033514;28;20182;-46
2023/12/26 15:09:30;;;;;;;1.45;1.15;;;13.70;45.40;;;;;;5034643;28;20208;-50
2023/12/26 15:11:56;;;;;;;1.20;0.97;;;13.50;45.70;;;;;;5034750;28;20170;-46
2023/12/26 15:14:21;;;;;;;2.10;1.10;;;13.40;45.80;;;;;;5034516;28;20218;-50
2023/12/26 15:16:47;;;;;;;1.00;0.50;;;13.50;45.60;;;;;;5034635;28;20170;-47
2023/12/26 15:19:13;;;;;;;2.23;1.80;;;13.50;44.60;;;;;;5034303;28;20587;-45
2023/12/26 15:21:43;;;;;;;1.00;0.50;;;13.60;44.30;;;;;;5034261;28;20440;-52
2023/12/26 15:24:13;;;;;;;1.63;0.95;;;13.60;44.50;;;;;;5034270;28;20280;-46
2023/12/26 15:26:39;;;;;;;0.90;0.40;;;13.70;44.20;;;;;;5034540;28;20212;-48
2023/12/26 15:29:05;;;;;;;1.15;0.73;;;13.80;43.80;;;;;;5034048;28;20192;-52
2023/12/26 15:31:34;;;;;;;4.90;1.27;;;13.80;43.40;;;;;;5034390;28;20182;-46
2023/12/26 15:34:01;;;;;;;5.40;0.88;;;13.80;43.20;;;;;;5034250;28;20571;-46